createdAt,value
2016-11-07T00:00:11.579Z,933.47
2016-11-07T00:01:25.155Z,933.45
2016-11-07T00:02:38.701Z,933.44
2016-11-07T00:03:51.423Z,933.46
2016-11-07T00:05:05.022Z,933.43
2016-11-07T00:06:18.349Z,933.46
2016-11-07T00:07:31.406Z,933.46
2016-11-07T00:08:44.949Z,933.47
2016-11-07T00:09:58.022Z,933.48
2016-11-07T00:11:12.193Z,933.48
2016-11-07T00:12:55.847Z,933.48
2016-11-07T00:14:09.302Z,933.48
2016-11-07T00:15:22.852Z,933.45
2016-11-07T00:17:07.567Z,933.43
2016-11-07T00:18:21.624Z,933.38
2016-11-07T00:19:34.392Z,933.39
2016-11-07T00:20:47.896Z,933.44
2016-11-07T00:22:00.998Z,933.4
2016-11-07T00:23:14.053Z,933.41
2016-11-07T00:24:27.376Z,933.39
2016-11-07T00:25:39.982Z,933.39
2016-11-07T00:26:53.588Z,933.38
2016-11-07T00:28:06.686Z,933.34
2016-11-07T00:29:51.487Z,933.35
2016-11-07T00:31:04.872Z,933.3
2016-11-07T00:32:17.946Z,933.3
2016-11-07T00:33:31.017Z,933.29
2016-11-07T00:34:44.658Z,933.28
2016-11-07T00:35:57.763Z,933.25
2016-11-07T00:37:10.860Z,933.24
2016-11-07T00:38:24.688Z,933.22
2016-11-07T00:39:37.225Z,933.26
2016-11-07T00:40:50.257Z,933.27
2016-11-07T00:42:03.816Z,933.29
2016-11-07T00:43:17.481Z,933.28
2016-11-07T00:44:30.529Z,933.27
2016-11-07T00:45:44.210Z,933.27
2016-11-07T00:46:56.721Z,933.26
2016-11-07T00:48:09.279Z,933.21
2016-11-07T00:49:22.845Z,933.19
2016-11-07T00:50:36.438Z,933.17
2016-11-07T00:51:49.532Z,933.2
2016-11-07T00:53:03.121Z,933.21
2016-11-07T00:54:16.631Z,933.18
2016-11-07T00:55:30.287Z,933.2
2016-11-07T00:56:43.948Z,933.19
2016-11-07T00:57:57.509Z,933.19
2016-11-07T00:59:11.187Z,933.19
2016-11-07T01:00:24.789Z,933.21
2016-11-07T01:01:37.867Z,933.22
2016-11-07T01:02:51.645Z,933.25
2016-11-07T01:04:04.690Z,933.22
2016-11-07T01:05:18.520Z,933.25
2016-11-07T01:06:31.556Z,933.23
2016-11-07T01:07:44.581Z,933.23
2016-11-07T01:08:57.606Z,933.24
2016-11-07T01:10:11.164Z,933.22
2016-11-07T01:11:23.691Z,933.21
2016-11-07T01:12:35.678Z,933.21
2016-11-07T01:13:49.258Z,933.2
2016-11-07T01:15:02.817Z,933.2
2016-11-07T01:16:16.095Z,933.21
2016-11-07T01:17:29.686Z,933.23
2016-11-07T01:18:43.205Z,933.23
2016-11-07T01:19:56.750Z,933.2
2016-11-07T01:21:10.299Z,933.21
2016-11-07T01:22:23.823Z,933.2
2016-11-07T01:23:36.929Z,933.19
2016-11-07T01:24:50.613Z,933.24
2016-11-07T01:26:03.747Z,933.22
2016-11-07T01:27:17.238Z,933.23
2016-11-07T01:28:30.261Z,933.27
2016-11-07T01:29:43.796Z,933.24
2016-11-07T01:30:57.364Z,933.23
2016-11-07T01:32:10.946Z,933.23
2016-11-07T01:33:24.599Z,933.22
2016-11-07T01:34:37.702Z,933.18
2016-11-07T01:35:50.912Z,933.16
2016-11-07T01:37:03.970Z,933.18
2016-11-07T01:38:16.763Z,933.14
2016-11-07T01:39:29.763Z,933.14
2016-11-07T01:40:43.357Z,933.11
2016-11-07T01:41:56.945Z,933.15
2016-11-07T01:43:10.581Z,933.13
2016-11-07T01:44:23.651Z,933.14
2016-11-07T01:45:36.898Z,933.09
2016-11-07T01:46:50.439Z,933.1
2016-11-07T01:48:04.030Z,933.08
2016-11-07T01:49:17.648Z,933.09
2016-11-07T01:50:30.750Z,933.08
2016-11-07T01:51:43.828Z,933.08
2016-11-07T01:52:57.749Z,933.05
2016-11-07T01:54:10.832Z,932.99
2016-11-07T01:55:24.556Z,933.01
2016-11-07T01:56:37.625Z,932.95
2016-11-07T01:57:51.579Z,932.97
2016-11-07T01:59:05.160Z,932.96
2016-11-07T02:00:18.420Z,932.95
2016-11-07T02:01:31.581Z,932.98
2016-11-07T02:02:44.334Z,932.98
2016-11-07T02:03:57.266Z,932.98
2016-11-07T02:05:10.834Z,932.96
2016-11-07T02:06:24.558Z,932.94
2016-11-07T02:07:37.685Z,932.86
2016-11-07T02:08:51.315Z,932.81
2016-11-07T02:10:04.328Z,932.86
2016-11-07T02:11:17.361Z,932.82
2016-11-07T02:12:30.496Z,932.81
2016-11-07T02:13:44.190Z,932.8
2016-11-07T02:14:57.824Z,932.8
2016-11-07T02:16:10.922Z,932.77
2016-11-07T02:17:24.687Z,932.78
2016-11-07T02:19:09.358Z,932.81
2016-11-07T02:20:22.873Z,932.76
2016-11-07T02:21:36.560Z,932.77
2016-11-07T02:22:50.200Z,932.77
2016-11-07T02:24:03.828Z,932.77
2016-11-07T02:25:17.399Z,932.77
2016-11-07T02:26:31.033Z,932.74
2016-11-07T02:27:44.006Z,932.74
2016-11-07T02:28:57.700Z,932.73
2016-11-07T02:30:10.786Z,932.73
2016-11-07T02:31:24.699Z,932.73
2016-11-07T02:32:38.223Z,932.74
2016-11-07T02:33:51.231Z,932.68
2016-11-07T02:35:04.801Z,932.71
2016-11-07T02:36:17.870Z,932.72
2016-11-07T02:37:31.450Z,932.71
2016-11-07T02:38:44.999Z,932.7
2016-11-07T02:39:58.601Z,932.67
2016-11-07T02:41:12.189Z,932.71
2016-11-07T02:42:25.454Z,932.65
2016-11-07T02:43:39.070Z,932.64
2016-11-07T02:44:52.675Z,932.63
2016-11-07T02:46:05.686Z,932.57
2016-11-07T02:47:18.755Z,932.61
2016-11-07T02:48:32.326Z,932.57
2016-11-07T02:49:45.935Z,932.55
2016-11-07T02:50:59.491Z,932.55
2016-11-07T02:52:13.090Z,932.53
2016-11-07T02:53:26.104Z,932.52
2016-11-07T02:54:39.712Z,932.49
2016-11-07T02:55:52.291Z,932.48
2016-11-07T02:57:05.291Z,932.47
2016-11-07T02:58:18.543Z,932.44
2016-11-07T02:59:32.157Z,932.4
2016-11-07T03:00:45.228Z,932.36
2016-11-07T03:01:58.803Z,932.35
2016-11-07T03:03:12.422Z,932.31
2016-11-07T03:04:25.989Z,932.32
2016-11-07T03:05:39.548Z,932.35
2016-11-07T03:06:53.171Z,932.32
2016-11-07T03:08:06.262Z,932.33
2016-11-07T03:09:19.904Z,932.36
2016-11-07T03:10:32.882Z,932.34
2016-11-07T03:11:45.850Z,932.29
2016-11-07T03:12:57.876Z,932.25
2016-11-07T03:14:11.447Z,932.23
2016-11-07T03:15:25.044Z,932.19
2016-11-07T03:16:38.637Z,932.19
2016-11-07T03:17:52.195Z,932.2
2016-11-07T03:19:36.900Z,932.1
2016-11-07T03:20:50.580Z,932.13
2016-11-07T03:22:03.610Z,932.12
2016-11-07T03:23:17.268Z,932.11
2016-11-07T03:24:30.302Z,932.13
2016-11-07T03:25:43.977Z,932.11
2016-11-07T03:26:57.630Z,932.09
2016-11-07T03:28:11.242Z,932.1
2016-11-07T03:29:24.470Z,932.11
2016-11-07T03:30:37.494Z,932.11
2016-11-07T03:31:51.086Z,932.14
2016-11-07T03:33:04.733Z,932.12
2016-11-07T03:34:17.839Z,932.13
2016-11-07T03:35:31.492Z,932.11
2016-11-07T03:36:45.081Z,932.1
2016-11-07T03:37:58.739Z,932.09
2016-11-07T03:39:11.227Z,932.09
2016-11-07T03:40:23.756Z,932.11
2016-11-07T03:41:35.707Z,932.11
2016-11-07T03:42:49.015Z,932.12
2016-11-07T03:44:02.656Z,932.09
2016-11-07T03:45:15.201Z,932.14
2016-11-07T03:46:28.779Z,932.09
2016-11-07T03:47:42.290Z,932.13
2016-11-07T03:48:55.401Z,932.11
2016-11-07T03:50:08.656Z,932.11
2016-11-07T03:51:22.196Z,932.07
2016-11-07T03:52:35.813Z,932.04
2016-11-07T03:53:48.589Z,932.07
2016-11-07T03:55:02.240Z,932.04
2016-11-07T03:56:15.262Z,932.04
2016-11-07T03:57:28.622Z,932.01
2016-11-07T03:58:42.211Z,932
2016-11-07T03:59:55.264Z,931.97
2016-11-07T04:01:08.777Z,931.97
2016-11-07T04:02:21.875Z,931.96
2016-11-07T04:03:34.873Z,931.99
2016-11-07T04:04:47.859Z,931.98
2016-11-07T04:06:01.198Z,931.98
2016-11-07T04:07:14.819Z,931.96
2016-11-07T04:08:28.357Z,931.98
2016-11-07T04:09:41.907Z,931.91
2016-11-07T04:10:54.356Z,931.83
2016-11-07T04:12:07.964Z,931.86
2016-11-07T04:13:21.605Z,931.8
2016-11-07T04:14:34.667Z,931.83
2016-11-07T04:15:46.659Z,931.82
2016-11-07T04:17:00.277Z,931.8
2016-11-07T04:18:13.837Z,931.81
2016-11-07T04:19:27.587Z,931.81
2016-11-07T04:20:41.134Z,931.8
2016-11-07T04:21:54.765Z,931.85
2016-11-07T04:23:08.295Z,931.82
2016-11-07T04:24:21.935Z,931.78
2016-11-07T04:25:35.323Z,931.74
2016-11-07T04:26:48.681Z,931.73
2016-11-07T04:28:02.333Z,931.72
2016-11-07T04:29:15.897Z,931.71
2016-11-07T04:30:29.573Z,931.73
2016-11-07T04:31:43.253Z,931.72
2016-11-07T04:32:56.410Z,931.7
2016-11-07T04:34:09.015Z,931.7
2016-11-07T04:35:22.074Z,931.74
2016-11-07T04:36:35.740Z,931.73
2016-11-07T04:37:49.469Z,931.71
2016-11-07T04:39:03.069Z,931.7
2016-11-07T04:40:16.180Z,931.69
2016-11-07T04:41:28.773Z,931.67
2016-11-07T04:42:42.460Z,931.64
2016-11-07T04:43:56.070Z,931.63
2016-11-07T04:45:08.638Z,931.68
2016-11-07T04:46:21.754Z,931.64
2016-11-07T04:47:34.905Z,931.62
2016-11-07T04:48:48.550Z,931.61
2016-11-07T04:50:02.238Z,931.59
2016-11-07T04:51:15.768Z,931.6
2016-11-07T04:52:29.344Z,931.61
2016-11-07T04:53:43.010Z,931.59
2016-11-07T04:54:56.543Z,931.56
2016-11-07T04:56:09.936Z,931.58
2016-11-07T04:57:23.577Z,931.58
2016-11-07T04:58:37.183Z,931.55
2016-11-07T04:59:50.325Z,931.57
2016-11-07T05:01:03.411Z,931.54
2016-11-07T05:02:17.009Z,931.57
2016-11-07T05:03:30.759Z,931.61
2016-11-07T05:04:44.330Z,931.61
2016-11-07T05:05:57.908Z,931.58
2016-11-07T05:07:11.538Z,931.6
2016-11-07T05:08:24.617Z,931.57
2016-11-07T05:09:38.204Z,931.59
2016-11-07T05:10:51.814Z,931.6
2016-11-07T05:13:49.499Z,931.57
2016-11-07T05:15:02.776Z,931.54
2016-11-07T05:16:16.426Z,931.51
2016-11-07T05:17:30.153Z,931.55
2016-11-07T05:18:43.242Z,931.55
2016-11-07T05:19:56.317Z,931.56
2016-11-07T05:21:09.959Z,931.55
2016-11-07T05:22:22.939Z,931.55
2016-11-07T05:23:36.252Z,931.55
2016-11-07T05:24:49.899Z,931.57
2016-11-07T05:26:03.492Z,931.55
2016-11-07T05:27:17.300Z,931.53
2016-11-07T05:28:30.848Z,931.55
2016-11-07T05:29:43.942Z,931.54
2016-11-07T05:30:57.870Z,931.57
2016-11-07T05:32:11.583Z,931.54
2016-11-07T05:33:24.964Z,931.53
2016-11-07T05:34:37.943Z,931.55
2016-11-07T05:35:51.555Z,931.53
2016-11-07T05:37:05.264Z,931.51
2016-11-07T05:38:18.797Z,931.55
2016-11-07T05:39:32.404Z,931.48
2016-11-07T05:40:46.004Z,931.49
2016-11-07T05:41:59.534Z,931.48
2016-11-07T05:43:13.075Z,931.47
2016-11-07T05:44:26.735Z,931.47
2016-11-07T05:45:40.331Z,931.5
2016-11-07T05:46:54.013Z,931.56
2016-11-07T05:48:07.603Z,931.54
2016-11-07T05:49:21.506Z,931.54
2016-11-07T05:50:34.566Z,931.53
2016-11-07T05:51:48.217Z,931.56
2016-11-07T05:53:01.809Z,931.54
2016-11-07T05:54:15.506Z,931.53
2016-11-07T05:55:29.153Z,931.53
2016-11-07T05:56:42.825Z,931.55
2016-11-07T05:57:56.009Z,931.51
2016-11-07T05:59:07.984Z,931.49
2016-11-07T06:00:21.145Z,931.54
2016-11-07T06:01:34.434Z,931.54
2016-11-07T06:02:48.018Z,931.53
2016-11-07T06:04:01.141Z,931.53
2016-11-07T06:05:14.244Z,931.55
2016-11-07T06:06:27.968Z,931.55
2016-11-07T06:07:40.462Z,931.54
2016-11-07T06:08:54.037Z,931.56
2016-11-07T06:10:07.696Z,931.57
2016-11-07T06:11:21.423Z,931.58
2016-11-07T06:12:34.898Z,931.57
2016-11-07T06:13:48.575Z,931.54
2016-11-07T06:15:02.163Z,931.56
2016-11-07T06:16:15.775Z,931.55
2016-11-07T06:17:28.901Z,931.57
2016-11-07T06:18:41.950Z,931.59
2016-11-07T06:19:55.564Z,931.55
2016-11-07T06:21:09.121Z,931.53
2016-11-07T06:22:22.730Z,931.52
2016-11-07T06:23:35.307Z,931.53
2016-11-07T06:24:48.912Z,931.5
2016-11-07T06:26:02.323Z,931.49
2016-11-07T06:27:15.418Z,931.53
2016-11-07T06:28:29.019Z,931.51
2016-11-07T06:29:42.614Z,931.53
2016-11-07T06:30:55.809Z,931.55
2016-11-07T06:32:09.415Z,931.5
2016-11-07T06:33:23.027Z,931.52
2016-11-07T06:34:35.617Z,931.49
2016-11-07T06:35:49.423Z,931.5
2016-11-07T06:37:03.155Z,931.45
2016-11-07T06:38:16.226Z,931.46
2016-11-07T06:39:29.764Z,931.5
2016-11-07T06:40:42.833Z,931.48
2016-11-07T06:41:55.891Z,931.49
2016-11-07T06:43:09.499Z,931.45
2016-11-07T06:44:36.770Z,931.47
2016-11-07T06:45:50.488Z,931.46
2016-11-07T06:47:03.478Z,931.44
2016-11-07T06:48:17.353Z,931.48
2016-11-07T06:49:30.523Z,931.47
2016-11-07T06:50:43.350Z,931.47
2016-11-07T06:51:57.008Z,931.5
2016-11-07T06:53:10.688Z,931.52
2016-11-07T06:54:23.797Z,931.47
2016-11-07T06:55:37.475Z,931.49
2016-11-07T06:56:50.594Z,931.46
2016-11-07T06:58:04.234Z,931.48
2016-11-07T06:59:17.864Z,931.49
2016-11-07T07:00:30.632Z,931.51
2016-11-07T07:01:43.262Z,931.5
2016-11-07T07:02:56.563Z,931.54
2016-11-07T07:04:10.199Z,931.56
2016-11-07T07:05:23.759Z,931.53
2016-11-07T07:06:37.318Z,931.58
2016-11-07T07:07:50.882Z,931.59
2016-11-07T07:09:04.208Z,931.61
2016-11-07T07:10:17.429Z,931.59
2016-11-07T07:11:30.492Z,931.61
2016-11-07T07:12:44.048Z,931.57
2016-11-07T07:13:57.906Z,931.54
2016-11-07T07:15:11.534Z,931.52
2016-11-07T07:16:24.933Z,931.53
2016-11-07T07:17:37.457Z,931.52
2016-11-07T07:18:49.977Z,931.53
2016-11-07T07:20:03.016Z,931.55
2016-11-07T07:21:16.626Z,931.54
2016-11-07T07:22:29.623Z,931.55
2016-11-07T07:23:43.146Z,931.54
2016-11-07T07:24:56.696Z,931.51
2016-11-07T07:26:10.337Z,931.52
2016-11-07T07:27:23.985Z,931.51
2016-11-07T07:28:37.586Z,931.52
2016-11-07T07:29:51.107Z,931.54
2016-11-07T07:31:04.784Z,931.55
2016-11-07T07:32:18.561Z,931.55
2016-11-07T07:33:31.116Z,931.57
2016-11-07T07:34:45.016Z,931.6
2016-11-07T07:35:58.398Z,931.54
2016-11-07T07:37:11.507Z,931.58
2016-11-07T07:38:24.800Z,931.59
2016-11-07T07:39:38.420Z,931.58
2016-11-07T07:40:51.653Z,931.58
2016-11-07T07:42:05.271Z,931.57
2016-11-07T07:43:19.033Z,931.63
2016-11-07T07:44:32.131Z,931.61
2016-11-07T07:45:45.520Z,931.6
2016-11-07T07:46:59.126Z,931.56
2016-11-07T07:48:12.231Z,931.6
2016-11-07T07:49:25.820Z,931.62
2016-11-07T07:50:39.410Z,931.67
2016-11-07T07:51:52.526Z,931.66
2016-11-07T07:53:06.088Z,931.67
2016-11-07T07:54:19.156Z,931.69
2016-11-07T07:55:32.216Z,931.72
2016-11-07T07:56:44.979Z,931.72
2016-11-07T07:57:58.635Z,931.72
2016-11-07T07:59:12.315Z,931.71
2016-11-07T08:00:26.010Z,931.7
2016-11-07T08:01:39.129Z,931.78
2016-11-07T08:02:52.187Z,931.72
2016-11-07T08:04:05.775Z,931.77
2016-11-07T08:05:19.424Z,931.79
2016-11-07T08:06:32.555Z,931.78
2016-11-07T08:07:44.559Z,931.79
2016-11-07T08:08:58.149Z,931.82
2016-11-07T08:10:11.235Z,931.86
2016-11-07T08:11:23.763Z,931.85
2016-11-07T08:12:37.363Z,931.85
2016-11-07T08:13:51.069Z,931.82
2016-11-07T08:15:04.505Z,931.86
2016-11-07T08:16:17.565Z,931.87
2016-11-07T08:17:31.183Z,931.91
2016-11-07T08:18:43.683Z,931.96
2016-11-07T08:19:57.262Z,931.93
2016-11-07T08:21:10.879Z,931.96
2016-11-07T08:22:23.433Z,931.98
2016-11-07T08:24:07.620Z,931.98
2016-11-07T08:25:21.272Z,931.95
2016-11-07T08:26:33.168Z,931.99
2016-11-07T08:27:46.806Z,932.02
2016-11-07T08:29:00.414Z,932.03
2016-11-07T08:30:14.014Z,932.02
2016-11-07T08:31:27.639Z,932.02
2016-11-07T08:32:40.981Z,932.05
2016-11-07T08:33:54.945Z,932.07
2016-11-07T08:35:08.024Z,932.1
2016-11-07T08:36:21.809Z,932.11
2016-11-07T08:37:35.384Z,932.07
2016-11-07T08:38:48.968Z,932.13
2016-11-07T08:40:02.041Z,932.14
2016-11-07T08:41:15.663Z,932.14
2016-11-07T08:42:29.307Z,932.11
2016-11-07T08:43:42.929Z,932.13
2016-11-07T08:44:56.063Z,932.14
2016-11-07T08:46:09.699Z,932.15
2016-11-07T08:47:22.693Z,932.21
2016-11-07T08:48:36.321Z,932.25
2016-11-07T08:49:49.952Z,932.24
2016-11-07T08:51:03.555Z,932.26
2016-11-07T08:52:16.560Z,932.29
2016-11-07T08:53:29.643Z,932.28
2016-11-07T08:54:43.252Z,932.29
2016-11-07T08:55:56.377Z,932.31
2016-11-07T08:57:09.930Z,932.34
2016-11-07T08:58:22.494Z,932.34
2016-11-07T08:59:36.163Z,932.37
2016-11-07T09:00:49.771Z,932.33
2016-11-07T09:02:03.434Z,932.38
2016-11-07T09:03:16.808Z,932.4
2016-11-07T09:04:30.543Z,932.42
2016-11-07T09:05:44.231Z,932.47
2016-11-07T09:06:57.354Z,932.5
2016-11-07T09:08:10.410Z,932.52
2016-11-07T09:09:23.535Z,932.55
2016-11-07T09:10:36.178Z,932.52
2016-11-07T09:11:49.595Z,932.56
2016-11-07T09:13:03.284Z,932.58
2016-11-07T09:14:16.903Z,932.58
2016-11-07T09:15:30.008Z,932.6
2016-11-07T09:16:43.612Z,932.63
2016-11-07T09:17:57.291Z,932.6
2016-11-07T09:19:10.927Z,932.65
2016-11-07T09:20:24.001Z,932.6
2016-11-07T09:21:37.490Z,932.63
2016-11-07T09:22:51.110Z,932.65
2016-11-07T09:24:04.756Z,932.67
2016-11-07T09:25:18.376Z,932.7
2016-11-07T09:26:31.474Z,932.7
2016-11-07T09:27:45.064Z,932.74
2016-11-07T09:28:57.633Z,932.77
2016-11-07T09:30:10.731Z,932.77
2016-11-07T09:31:23.864Z,932.74
2016-11-07T09:32:37.451Z,932.79
2016-11-07T09:33:51.006Z,932.79
2016-11-07T09:35:04.005Z,932.81
2016-11-07T09:36:17.587Z,932.84
2016-11-07T09:37:31.187Z,932.82
2016-11-07T09:38:44.819Z,932.85
2016-11-07T09:39:58.522Z,932.87
2016-11-07T09:41:11.979Z,932.87
2016-11-07T09:42:25.047Z,932.92
2016-11-07T09:43:38.141Z,932.9
2016-11-07T09:44:51.743Z,932.91
2016-11-07T09:46:05.343Z,932.9
2016-11-07T09:47:18.915Z,932.92
2016-11-07T09:48:32.531Z,932.94
2016-11-07T09:49:45.050Z,932.93
2016-11-07T09:50:58.732Z,932.92
2016-11-07T09:52:12.519Z,932.94
2016-11-07T09:53:25.528Z,932.91
2016-11-07T09:54:38.566Z,932.95
2016-11-07T09:55:52.529Z,932.95
2016-11-07T09:57:06.119Z,932.98
2016-11-07T09:58:19.748Z,933.01
2016-11-07T09:59:33.407Z,933.05
2016-11-07T10:00:47.005Z,933.05
2016-11-07T10:02:00.148Z,933.02
2016-11-07T10:03:13.706Z,933.04
2016-11-07T10:04:27.323Z,933.03
2016-11-07T10:05:40.971Z,933.07
2016-11-07T10:06:54.773Z,933.06
2016-11-07T10:08:07.788Z,933.07
2016-11-07T10:09:20.516Z,933.1
2016-11-07T10:10:33.584Z,933.14
2016-11-07T10:11:47.152Z,933.12
2016-11-07T10:13:01.009Z,933.17
2016-11-07T10:14:13.548Z,933.14
2016-11-07T10:15:26.048Z,933.18
2016-11-07T10:16:39.214Z,933.15
2016-11-07T10:17:52.789Z,933.2
2016-11-07T10:19:06.448Z,933.2
2016-11-07T10:20:19.509Z,933.22
2016-11-07T10:21:32.653Z,933.25
2016-11-07T10:22:46.276Z,933.27
2016-11-07T10:23:59.885Z,933.26
2016-11-07T10:25:13.543Z,933.33
2016-11-07T10:26:27.165Z,933.31
2016-11-07T10:27:40.722Z,933.29
2016-11-07T10:28:54.077Z,933.28
2016-11-07T10:30:07.845Z,933.33
2016-11-07T10:31:20.561Z,933.34
2016-11-07T10:32:34.202Z,933.34
2016-11-07T10:33:47.867Z,933.32
2016-11-07T10:35:01.460Z,933.34
2016-11-07T10:36:13.976Z,933.36
2016-11-07T10:37:27.124Z,933.39
2016-11-07T10:38:40.734Z,933.41
2016-11-07T10:39:54.319Z,933.4
2016-11-07T10:41:07.411Z,933.41
2016-11-07T10:42:21.074Z,933.41
2016-11-07T10:43:34.125Z,933.46
2016-11-07T10:44:47.649Z,933.46
2016-11-07T10:46:01.300Z,933.43
2016-11-07T10:47:14.915Z,933.44
2016-11-07T10:48:28.529Z,933.46
2016-11-07T10:49:41.595Z,933.43
2016-11-07T10:50:55.328Z,933.43
2016-11-07T10:52:07.376Z,933.41
2016-11-07T10:53:20.513Z,933.4
2016-11-07T10:54:33.666Z,933.43
2016-11-07T10:55:46.463Z,933.42
2016-11-07T10:56:59.029Z,933.45
2016-11-07T10:58:12.621Z,933.46
2016-11-07T10:59:25.688Z,933.45
2016-11-07T11:00:38.185Z,933.44
2016-11-07T11:01:51.255Z,933.44
2016-11-07T11:03:04.917Z,933.49
2016-11-07T11:04:18.707Z,933.48
2016-11-07T11:05:32.284Z,933.48
2016-11-07T11:06:45.901Z,933.5
2016-11-07T11:07:59.813Z,933.51
2016-11-07T11:09:13.386Z,933.48
2016-11-07T11:10:26.464Z,933.52
2016-11-07T11:11:40.010Z,933.51
2016-11-07T11:12:53.668Z,933.54
2016-11-07T11:14:07.138Z,933.51
2016-11-07T11:15:20.739Z,933.52
2016-11-07T11:16:33.805Z,933.53
2016-11-07T11:17:46.958Z,933.53
2016-11-07T11:18:59.473Z,933.5
2016-11-07T11:20:13.033Z,933.54
2016-11-07T11:21:26.681Z,933.51
2016-11-07T11:22:40.408Z,933.53
2016-11-07T11:23:53.420Z,933.55
2016-11-07T11:25:06.517Z,933.5
2016-11-07T11:26:19.861Z,933.49
2016-11-07T11:27:32.429Z,933.57
2016-11-07T11:28:45.988Z,933.53
2016-11-07T11:29:59.639Z,933.54
2016-11-07T11:31:13.258Z,933.55
2016-11-07T11:32:25.852Z,933.58
2016-11-07T11:33:38.861Z,933.58
2016-11-07T11:34:51.911Z,933.57
2016-11-07T11:36:04.977Z,933.54
2016-11-07T11:37:18.778Z,933.52
2016-11-07T11:38:32.404Z,933.55
2016-11-07T11:39:45.998Z,933.55
2016-11-07T11:40:58.539Z,933.53
2016-11-07T11:42:43.283Z,933.61
2016-11-07T11:43:56.799Z,933.58
2016-11-07T11:45:09.952Z,933.56
2016-11-07T11:46:23.623Z,933.6
2016-11-07T11:47:37.272Z,933.6
2016-11-07T11:48:50.573Z,933.57
2016-11-07T11:50:04.128Z,933.55
2016-11-07T11:51:17.689Z,933.55
2016-11-07T11:52:31.364Z,933.55
2016-11-07T11:53:44.727Z,933.57
2016-11-07T11:54:58.027Z,933.57
2016-11-07T11:56:11.673Z,933.56
2016-11-07T11:57:25.254Z,933.58
2016-11-07T11:58:38.304Z,933.55
2016-11-07T11:59:51.370Z,933.54
2016-11-07T12:01:05.000Z,933.51
2016-11-07T12:02:18.757Z,933.52
2016-11-07T12:03:32.412Z,933.47
2016-11-07T12:04:45.497Z,933.5
2016-11-07T12:05:59.189Z,933.48
2016-11-07T12:07:12.789Z,933.48
2016-11-07T12:08:26.376Z,933.49
2016-11-07T12:09:39.435Z,933.48
2016-11-07T12:10:53.004Z,933.46
2016-11-07T12:12:06.627Z,933.48
2016-11-07T12:13:51.305Z,933.47
2016-11-07T12:15:04.409Z,933.5
2016-11-07T12:16:17.581Z,933.47
2016-11-07T12:17:31.202Z,933.45
2016-11-07T12:18:44.850Z,933.45
2016-11-07T12:19:58.016Z,933.43
2016-11-07T12:21:11.628Z,933.37
2016-11-07T12:22:25.207Z,933.43
2016-11-07T12:23:38.830Z,933.45
2016-11-07T12:24:52.453Z,933.41
2016-11-07T12:26:05.594Z,933.38
2016-11-07T12:27:18.369Z,933.39
2016-11-07T12:28:31.945Z,933.37
2016-11-07T12:29:45.085Z,933.36
2016-11-07T12:30:58.693Z,933.35
2016-11-07T12:32:11.781Z,933.37
2016-11-07T12:33:56.493Z,933.35
2016-11-07T12:35:10.216Z,933.34
2016-11-07T12:36:23.846Z,933.29
2016-11-07T12:37:36.970Z,933.3
2016-11-07T12:38:50.643Z,933.28
2016-11-07T12:40:03.669Z,933.28
2016-11-07T12:41:17.260Z,933.28
2016-11-07T12:42:31.152Z,933.21
2016-11-07T12:43:44.542Z,933.2
2016-11-07T12:44:58.136Z,933.19
2016-11-07T12:46:11.298Z,933.23
2016-11-07T12:47:24.943Z,933.2
2016-11-07T12:48:37.943Z,933.19
2016-11-07T12:49:51.798Z,933.19
2016-11-07T12:51:05.419Z,933.13
2016-11-07T12:52:18.165Z,933.1
2016-11-07T12:53:31.791Z,933.08
2016-11-07T12:54:44.911Z,933.02
2016-11-07T12:55:58.020Z,933.08
2016-11-07T12:57:11.605Z,933.1
2016-11-07T12:58:25.212Z,933.05
2016-11-07T12:59:38.227Z,933.04
2016-11-07T13:00:51.845Z,933.02
2016-11-07T13:02:05.554Z,933.05
2016-11-07T13:03:18.339Z,933.01
2016-11-07T13:04:31.920Z,932.99
2016-11-07T13:05:45.282Z,932.99
2016-11-07T13:06:58.941Z,932.95
2016-11-07T13:08:12.641Z,932.94
2016-11-07T13:09:26.221Z,932.93
2016-11-07T13:10:39.759Z,932.95
2016-11-07T13:11:53.334Z,932.9
2016-11-07T13:13:06.930Z,932.9
2016-11-07T13:14:20.659Z,932.93
2016-11-07T13:15:33.722Z,932.93
2016-11-07T13:16:47.592Z,932.96
2016-11-07T13:18:01.246Z,932.94
2016-11-07T13:19:14.311Z,932.92
2016-11-07T13:20:28.059Z,932.9
2016-11-07T13:21:41.200Z,932.86
2016-11-07T13:22:54.977Z,932.84
2016-11-07T13:24:08.086Z,932.86
2016-11-07T13:25:21.209Z,932.85
2016-11-07T13:26:34.836Z,932.82
2016-11-07T13:27:48.448Z,932.79
2016-11-07T13:29:01.791Z,932.77
2016-11-07T13:30:14.370Z,932.7
2016-11-07T13:31:28.116Z,932.72
2016-11-07T13:32:41.485Z,932.72
2016-11-07T13:33:55.020Z,932.7
2016-11-07T13:35:08.611Z,932.71
2016-11-07T13:36:22.203Z,932.63
2016-11-07T13:37:35.797Z,932.63
2016-11-07T13:38:49.490Z,932.63
2016-11-07T13:40:02.582Z,932.57
2016-11-07T13:41:16.209Z,932.56
2016-11-07T13:42:29.788Z,932.5
2016-11-07T13:43:43.406Z,932.57
2016-11-07T13:44:57.082Z,932.56
2016-11-07T13:46:10.717Z,932.52
2016-11-07T13:47:24.358Z,932.5
2016-11-07T13:48:37.985Z,932.49
2016-11-07T13:49:50.673Z,932.55
2016-11-07T13:51:03.728Z,932.53
2016-11-07T13:52:16.825Z,932.52
2016-11-07T13:53:30.438Z,932.47
2016-11-07T13:54:44.039Z,932.5
2016-11-07T13:55:57.569Z,932.46
2016-11-07T13:57:10.690Z,932.51
2016-11-07T13:58:24.281Z,932.47
2016-11-07T13:59:37.834Z,932.48
2016-11-07T14:00:51.457Z,932.5
2016-11-07T14:02:04.795Z,932.49
2016-11-07T14:03:18.184Z,932.48
2016-11-07T14:04:31.330Z,932.45
2016-11-07T14:05:44.908Z,932.41
2016-11-07T14:06:58.027Z,932.41
2016-11-07T14:08:10.585Z,932.44
2016-11-07T14:09:23.391Z,932.4
2016-11-07T14:10:36.501Z,932.38
2016-11-07T14:11:50.100Z,932.39
2016-11-07T14:13:03.324Z,932.38
2016-11-07T14:14:17.009Z,932.36
2016-11-07T14:15:30.580Z,932.37
2016-11-07T14:16:44.289Z,932.38
2016-11-07T14:17:58.053Z,932.38
2016-11-07T14:19:11.735Z,932.29
2016-11-07T14:20:25.392Z,932.24
2016-11-07T14:21:38.968Z,932.27
2016-11-07T14:22:52.506Z,932.32
2016-11-07T14:24:06.162Z,932.28
2016-11-07T14:25:19.272Z,932.23
2016-11-07T14:26:32.438Z,932.26
2016-11-07T14:27:46.120Z,932.27
2016-11-07T14:28:59.185Z,932.33
2016-11-07T14:30:12.549Z,932.24
2016-11-07T14:31:26.142Z,932.29
2016-11-07T14:32:39.761Z,932.26
2016-11-07T14:33:52.803Z,932.21
2016-11-07T14:35:05.365Z,932.22
2016-11-07T14:36:18.422Z,932.24
2016-11-07T14:37:32.070Z,932.24
2016-11-07T14:38:44.581Z,932.19
2016-11-07T14:39:57.628Z,932.16
2016-11-07T14:41:10.992Z,932.11
2016-11-07T14:42:23.813Z,932.05
2016-11-07T14:43:37.393Z,932.03
2016-11-07T14:44:50.623Z,932.03
2016-11-07T14:46:03.905Z,932.04
2016-11-07T14:47:17.694Z,932.04
2016-11-07T14:48:31.312Z,932.09
2016-11-07T14:49:44.361Z,932.01
2016-11-07T14:50:58.189Z,931.97
2016-11-07T14:52:10.777Z,931.93
2016-11-07T14:53:24.470Z,931.9
2016-11-07T14:54:38.066Z,931.87
2016-11-07T14:57:03.744Z,931.86
2016-11-07T14:58:17.149Z,931.83
2016-11-07T14:59:30.258Z,931.9
2016-11-07T15:00:43.079Z,931.87
2016-11-07T15:01:56.660Z,931.83
2016-11-07T15:03:10.302Z,931.79
2016-11-07T15:04:24.007Z,931.82
2016-11-07T15:05:37.647Z,931.73
2016-11-07T15:06:50.953Z,931.64
2016-11-07T15:08:04.047Z,931.67
2016-11-07T15:09:17.765Z,931.64
2016-11-07T15:10:31.522Z,931.66
2016-11-07T15:11:45.212Z,931.67
2016-11-07T15:12:58.924Z,931.67
2016-11-07T15:14:12.049Z,931.65
2016-11-07T15:15:25.794Z,931.61
2016-11-07T15:16:39.375Z,931.57
2016-11-07T15:17:52.996Z,931.56
2016-11-07T15:19:06.557Z,931.56
2016-11-07T15:20:20.156Z,931.5
2016-11-07T15:21:33.736Z,931.51
2016-11-07T15:22:47.615Z,931.54
2016-11-07T15:24:01.272Z,931.46
2016-11-07T15:25:14.960Z,931.43
2016-11-07T15:26:28.351Z,931.42